Nearby METAR Reports

 

KOAK - Oakland, California, USA
Distance from station: SSW 6mi, 9km
Updated: Sun, 26-Jan-2020 7:53pm PST
Few Clouds
Few Clouds
 Wind from NW
Wind: NW 8 mph , 13 km/h
Temperature: 55°F , 13°C
Dew Point: 48°F , 9°C
Humidity: 77%
Barometer: 30.31 inHg , 1026.4 hPa
Clouds: Few Clouds
Visibility: 10 miles , 16 km
Cloud details: Few Clouds 1000 ft
Few Clouds 20000 ft
2020/01/27 03:53 KOAK 270353Z 31007KT 10SM FEW010 FEW200 13/09 A3031 RMK AO2 SLP264 T01280089
KHWD - Hayward, California, USA
Distance from station: SSE 8mi, 12km
Updated: Sun, 26-Jan-2020 7:54pm PST
Clear
Clear
 Wind from WNW
Wind: WNW 6 mph , 9 km/h
Temperature: 52°F , 11°C
Dew Point: 46°F , 8°C
Humidity: 82%
Barometer: 30.31 inHg , 1026.4 hPa
Clouds: Clear
2020/01/27 03:54 KHWD 270354Z 29005KT CLR 11/08 A3031 RMK AO2 SLP273 T01060083 $
KSFO - San Francisco, California, USA
Distance from station: SW 15mi, 25km
Updated: Sun, 26-Jan-2020 7:56pm PST
Few Clouds
Few Clouds
 Wind from W
Wind: W 22 mph , 35 km/h
Temperature: 54°F , 12°C
Dew Point: 46°F , 8°C
Humidity: 77%
Barometer: 30.29 inHg , 1025.7 hPa
Clouds: Few Clouds
Visibility: 10 miles , 16 km
Cloud details: Few Clouds 800 ft
Few Clouds 18000 ft
2020/01/27 03:56 KSFO 270356Z 27019KT 10SM FEW008 FEW180 12/08 A3029 RMK AO2 SLP257 T01220078
 
KCCR - Concord, California, USA
Distance from station: NNE 17mi, 27km
Updated: Sun, 26-Jan-2020 7:53pm PST
Clear
Clear
 Wind from S
Wind: S 6 mph , 9 km/h
Temperature: 54°F , 12°C
Dew Point: 45°F , 7°C
Humidity: 72%
Barometer: 30.30 inHg , 1026.1 hPa
Clouds: Clear
Visibility: 10 miles , 16 km
2020/01/27 03:53 KCCR 270353Z 17005KT 10SM CLR 12/07 A3030 RMK AO2 SLP246 T01170072
KSQL - San Carlos Airpo, California, USA
Distance from station: SSW 18mi, 29km
Updated: Sun, 26-Jan-2020 6:58pm PST
Few Clouds
Few Clouds
 Wind from WSW
Wind: WSW 5 mph , 7 km/h
Temperature: 55°F , 13°C
Dew Point: 45°F , 7°C
Humidity: 67%
Barometer: 30.30 inHg , 1026.1 hPa
Clouds: Few Clouds
Visibility: 10 miles , 16 km
Cloud details: Few Clouds 1700 ft
2020/01/27 02:58 KSQL 270258Z 25004KT 10SM FEW017 13/07 A3030
KLVK - Livermore, California, USA
Distance from station: ESE 20mi, 31km
Updated: Sun, 26-Jan-2020 7:53pm PST
Clear
Clear
 Wind from calm
Wind: Calm
Temperature: 48°F , 9°C
Dew Point: 46°F , 8°C
Humidity: 94%
Barometer: 30.29 inHg , 1025.7 hPa
Clouds: Clear
Visibility: 10 miles , 16 km
2020/01/27 03:53 KLVK 270353Z 00000KT 10SM CLR 09/08 A3029 RMK AO2 SLP255 T00940083
 
KPAO - Palo Alto, California, USA
Distance from station: S 21mi, 34km
Updated: Sun, 26-Jan-2020 7:47pm PST
Clear
Clear
 Wind from calm
Wind: Calm
Temperature: 52°F , 11°C
Dew Point: 45°F , 7°C
Humidity: 77%
Barometer: 30.31 inHg , 1026.4 hPa
Clouds: Clear
Visibility: 10 miles , 16 km
2020/01/27 03:47 KPAO 270347Z 00000KT 10SM SKC 11/07 A3031
KHAF - Half Moon Bay, California, USA
Distance from station: SW 25mi, 41km
Updated: Sun, 26-Jan-2020 8:00pm PST
Clear
Clear
 Wind from NNW
Wind: NNW 13 mph , 20 km/h
Temperature: 50°F , 10°C
Wind Chill: 45°F , 7°C
Dew Point: 46°F , 8°C
Humidity: 88%
Barometer: 30.31 inHg , 1026.4 hPa
Clouds: Clear
Visibility: 7 miles , 11 km
2020/01/27 04:00 KHAF 270400Z AUTO 33011KT 7SM CLR 10/08 A3031 RMK AO2
KNUQ - Moffett Nas/Mtn, California, USA
Distance from station: SSE 26mi, 42km
Updated: Thu, 21-Nov-2019 8:56am PST
NOT Current

 
Barometer: 29.86 inHg , 1011.2 hPa
2019/11/21 16:56 KNUQ 211656Z AUTO A2986 RMK AO2 SLP116 PWINO $
 
KAPC - Napa, California, USA
Distance from station: NNW 30mi, 49km
Updated: Sun, 26-Jan-2020 7:54pm PST
Clear
Clear
 Wind from calm
Wind: Calm
Temperature: 50°F , 10°C
Dew Point: 45°F , 7°C
Humidity: 82%
Barometer: 30.29 inHg , 1025.7 hPa
Clouds: Clear
Visibility: 10 miles , 16 km
2020/01/27 03:54 KAPC 270354Z 00000KT 10SM CLR 10/07 A3029 RMK AO2 SLP247 T01000072
KSJC - San Jose, California, USA
Distance from station: SSE 31mi, 50km
Updated: Sun, 26-Jan-2020 7:53pm PST
Few Clouds
Few Clouds
 Wind from NNW
Wind: NNW 7 mph , 11 km/h
Temperature: 54°F , 12°C
Dew Point: 46°F , 8°C
Humidity: 77%
Barometer: 30.30 inHg , 1026.1 hPa
Clouds: Few Clouds
Visibility: 10 miles , 16 km
Cloud details: Few Clouds 3000 ft
Few Clouds 5500 ft
2020/01/27 03:53 KSJC 270353Z 34006KT 10SM FEW030 FEW055 12/08 A3030 RMK AO2 SLP261 T01220078
KDVO - Novato/Gnoss Fld, California, USA
Distance from station: NW 34mi, 54km
Updated: Sun, 26-Jan-2020 7:55pm PST
Clear
Clear
 
Temperature: 55°F , 13°C
Dew Point: 41°F , 5°C
Humidity: 59%
Barometer: 30.29 inHg , 1025.7 hPa
Clouds: Clear
Visibility: 10 miles , 16 km
2020/01/27 03:55 KDVO 270355Z AUTO 10SM CLR 13/05 A3029 RMK AO2
 
KRHV - San Jose/Reid, California, USA
Distance from station: SSE 37mi, 59km
Updated: Sun, 26-Jan-2020 7:47pm PST
Few Clouds
Few Clouds
 Wind from NNW
Wind: NNW 6 mph , 9 km/h
Temperature: 52°F , 11°C
Dew Point: 46°F , 8°C
Humidity: 82%
Barometer: 30.31 inHg , 1026.4 hPa
Clouds: Few Clouds
Visibility: 10 miles , 16 km
Cloud details: Few Clouds 5000 ft
2020/01/27 03:47 KRHV 270347Z 33005KT 10SM FEW050 11/08 A3031
KSUU - Travis Afb/Fairf, California, USA
Distance from station: NNE 37mi, 59km
Updated: Sun, 26-Jan-2020 7:58pm PST
Clear
Clear
 Wind from SSW
Wind: SSW 13 mph , 20 km/h
Temperature: 50°F , 10°C
Wind Chill: 45°F , 7°C
Dew Point: 45°F , 7°C
Humidity: 82%
Barometer: 30.26 inHg , 1024.7 hPa
Clouds: Clear
Visibility: 10 miles , 16 km
2020/01/27 03:58 KSUU 270358Z AUTO 20011KT 10SM CLR 10/07 A3026 RMK AO2 SLP254 T00970073 $
KO69 - Petaluma, California, USA
Distance from station: NW 41mi, 66km
Updated: Sun, 26-Jan-2020 7:55pm PST
Overcast
Overcast
 Wind from NNW
Wind: NNW 5 mph , 7 km/h
Temperature: 48°F , 9°C
Wind Chill: 46°F , 8°C
Dew Point: 48°F , 9°C
Humidity: 100%
Barometer: 30.31 inHg , 1026.4 hPa
Clouds: Overcast
Visibility: 10 miles , 16 km
Cloud details: Overcast 1700 ft
2020/01/27 03:55 KO69 270355Z AUTO 33004KT 10SM OVC017 09/09 A3031 RMK A01
 
KVCB - Vacaville, California, USA
Distance from station: NNE 44mi, 71km
Updated: Sun, 26-Jan-2020 7:53pm PST
Clear
Clear
 Wind from SW
Wind: SW 6 mph , 9 km/h
Temperature: 54°F , 12°C
Dew Point: 43°F , 6°C
Humidity: 67%
Barometer: 30.26 inHg , 1024.7 hPa
Clouds: Clear
Visibility: 10 miles , 16 km
2020/01/27 03:53 KVCB 270353Z AUTO 23005KT 10SM CLR 12/06 A3026 RMK AO2 SLP246 T01170061